Flight Track Log - Related Links

Times and Time Zones

All times are in EDT time to prevent confusion due to time zone crossing. See the TCF3494 flight status page for this flight to view local times or setup timezone preferences in your user account.

Time Position Orientation Groundspeed Altitude Reporting Facility
EDT Latitude Longitude Course Direction KTS MPH feet Rate Location/Type
Tue 04:19:05 PM 41.9333 -87.8667 90° East 200 230 2,700  Level Chicago TRACON
Tue 04:20:05 PM 41.9333 -87.7667 90° East 275 316 5,000 2,850 Climbing Chicago TRACON
Tue 04:21:00 PM 41.9464 -87.3153 95° East  Level FlightAware Approximate
Tue 04:21:05 PM 41.9500 -87.6667 77° East 309 356 8,400  Level Chicago TRACON
Tue 04:22:00 PM 41.9359 -87.1694 95° East  Level FlightAware Approximate
Tue 04:23:00 PM 41.9333 -87.0231 90° East  Level FlightAware Approximate
Tue 04:23:00 PM 41.9586 -87.4381 87° East 335 386 13,500  Level Chicago Center
Tue 04:24:00 PM 41.9333 -86.8765 90° East  Level FlightAware Approximate
Tue 04:24:02 PM 41.9531 -87.3036 93° East 352 405 16,000  Level Chicago Center
Tue 04:25:04 PM 41.9486 -87.1658 92° East 365 420 18,800 2,419 Climbing Chicago Center
Tue 04:26:06 PM 41.9442 -87.0231 92° East 377 434 21,000 2,129 Climbing Chicago Center
Tue 04:27:08 PM 41.9475 -86.8481 88° East 390 449 23,200 1,887 Climbing Chicago Center
Tue 04:28:10 PM 41.9506 -86.7006 88° East 395 455 24,900 1,306 Climbing Chicago Center
Tue 04:29:12 PM 41.9508 -86.5414 90° East 408 470 25,900 1,210 Climbing Chicago Center
Tue 04:30:14 PM 41.9542 -86.3825 88° East 420 483 27,400 1,452 Climbing Chicago Center
Tue 04:31:16 PM 41.9547 -86.2206 90° East 430 495 28,900 1,355 Climbing Chicago Center
Tue 04:32:18 PM 41.9414 -86.0572 96° East 436 502 30,200 1,258 Climbing Chicago Center
Tue 04:33:20 PM 41.9250 -85.8942 98° East 440 506 31,500 1,200 Climbing Chicago Center
Tue 04:34:23 PM 41.9108 -85.7314 97° East 439 505 32,700 1,248 Climbing Chicago Center
Tue 04:35:25 PM 41.8931 -85.5356 97° East 437 503 34,100 1,113 Climbing Chicago Center
Tue 04:36:27 PM 41.8764 -85.3722 98° East 436 502 35,000 435 Climbing Chicago Center
Tue 04:37:29 PM 41.8603 -85.2097 98° East 435 501 35,000  Level Chicago Center
Tue 04:38:31 PM 41.8436 -85.0494 98° East 431 496 35,000  Level Chicago Center
Tue 04:39:33 PM 41.8281 -84.8889 97° East 433 498 35,000  Level Chicago Center
Tue 04:40:35 PM 41.8100 -84.7253 98° East 443 510 35,000  Level Chicago Center
Tue 04:41:37 PM 41.7931 -84.5664 98° East 433 498 35,000  Level Chicago Center
Tue 04:42:34 PM 41.7817 -84.4039 95° East 432 497 35,000  Level Cleveland Center
Tue 04:43:34 PM 41.7747 -84.2336 93° East 427 491 35,000  Level Cleveland Center
Tue 04:44:34 PM 41.7714 -84.0692 92° East 427 491 35,000  Level Cleveland Center
Tue 04:45:34 PM 41.7719 -83.9078 90° East 427 491 35,000  Level Cleveland Center
Tue 04:46:34 PM 41.7703 -83.7461 91° East 427 491 35,000  Level Cleveland Center
Tue 04:47:34 PM 41.7683 -83.5872 91° East 427 491 35,000  Level Cleveland Center
Tue 04:48:34 PM 41.7558 -83.4253 96° East 427 491 35,000  Level Cleveland Center
Tue 04:49:34 PM 41.7408 -83.2658 97° East 427 491 35,000  Level Cleveland Center
Tue 04:50:34 PM 41.7258 -83.1067 97° East 427 491 35,000  Level Cleveland Center
Tue 04:51:34 PM 41.7083 -82.9475 98° East 427 491 35,000  Level Cleveland Center
Tue 04:52:34 PM 41.6928 -82.7911 98° East 427 491 35,000  Level Cleveland Center
Tue 04:53:34 PM 41.6769 -82.6319 98° East 427 491 35,000  Level Cleveland Center
Tue 04:54:34 PM 41.6608 -82.4731 98° East 427 491 35,000  Level Cleveland Center
Tue 04:55:34 PM 41.6464 -82.3256 97° East 435 501 35,000  Level Cleveland Center
Tue 04:56:34 PM 41.6300 -82.1667 98° East 430 495 35,000  Level Cleveland Center
Tue 04:57:34 PM 41.6133 -82.0078 98° East 430 495 35,000  Level Cleveland Center
Tue 04:58:34 PM 41.5944 -81.8492 99° East 430 495 35,000  Level Cleveland Center
Tue 04:59:34 PM 41.5753 -81.6739 98° East 430 495 35,000  Level Cleveland Center
Tue 05:00:34 PM 41.5558 -81.5156 99° East 430 495 35,000  Level Cleveland Center
Tue 05:01:34 PM 41.5383 -81.3572 98° East 430 495 35,000  Level Cleveland Center
Tue 05:02:34 PM 41.5206 -81.1989 98° East 430 495 35,000  Level Cleveland Center
Tue 05:03:34 PM 41.5047 -81.0433 98° East 430 495 35,000  Level Cleveland Center
Tue 05:04:34 PM 41.4925 -80.9019 97° East 430 495 35,000  Level Cleveland Center
Tue 05:05:34 PM 41.4783 -80.7439 97° East 424 488 35,000  Level Cleveland Center
Tue 05:06:34 PM 41.4639 -80.5886 97° East 425 489 35,000  Level Cleveland Center
Tue 05:07:34 PM 41.4514 -80.4308 96° East 425 489 35,000  Level Cleveland Center
Tue 05:08:34 PM 41.4364 -80.2703 97° East 425 489 35,000  Level Cleveland Center
Tue 05:09:34 PM 41.4211 -80.1153 97° East 425 489 35,000  Level Cleveland Center
Tue 05:10:33 PM 41.4036 -79.9408 98° East 425 489 35,000  Level Cleveland Center
Tue 05:11:34 PM 41.3903 -79.7861 97° East 425 489 35,000  Level Cleveland Center
Tue 05:12:34 PM 41.3767 -79.6617 98° East 425 489 35,000  Level Cleveland Center
Tue 05:13:34 PM 41.3606 -79.4847 97° East 425 489 35,000  Level Cleveland Center
Tue 05:14:34 PM 41.3425 -79.3303 99° East 425 489 35,000  Level Cleveland Center
Tue 05:15:34 PM 41.3258 -79.1619 97° East 425 489 35,000  Level Cleveland Center
Tue 05:16:34 PM 41.3092 -79.0019 98° East 425 489 35,000  Level Cleveland Center
Tue 05:17:34 PM 41.2967 -78.8614 97° East 425 489 35,000  Level Cleveland Center
Tue 05:18:34 PM 41.2775 -78.7044 99° East 425 489 35,000  Level Cleveland Center
Tue 05:19:34 PM 41.2603 -78.5447 98° East 425 489 35,000 -358 Level Cleveland Center
Tue 05:21:05 PM 41.2342 -78.3089 98° East 426 490 34,100 -789 Descending New York Center
Tue 05:22:06 PM 41.2150 -78.1494 99° East 432 497 33,000 -545 Descending New York Center
Tue 05:23:06 PM 41.1956 -77.9903 99° East 432 497 33,000  Level New York Center
Tue 05:24:04 PM 41.1756 -77.8364 100° East 432 497 33,000 -407 Level New York Center
Tue 05:25:04 PM 41.1558 -77.6800 99° East 432 497 32,200 -1,150 Descending New York Center
Tue 05:26:04 PM 41.1358 -77.5208 99° East 432 497 30,700 -1,488 Descending New York Center
Tue 05:27:05 PM 41.1153 -77.3672 100° East 432 497 29,200 -1,488 Descending New York Center
Tue 05:28:05 PM 41.0947 -77.2111 100° East 426 490 27,700 -1,488 Descending New York Center
Tue 05:29:06 PM 41.0756 -77.0633 100° East 421 484 26,200 -1,438 Descending New York Center
Tue 05:30:06 PM 41.0542 -76.9128 101° East 411 473 24,800 -1,412 Descending New York Center
Tue 05:31:05 PM 41.0344 -76.7678 100° East 411 473 23,400 -1,400 Descending New York Center
Tue 05:32:06 PM 41.0122 -76.6311 102° East 397 457 22,000 -1,373 Descending New York Center
Tue 05:33:03 PM 40.9794 -76.4936 107° East 391 450 20,700 -1,322 Descending New York Center
Tue 05:34:04 PM 40.9481 -76.3617 107° East 378 435 19,400 -1,426 Descending New York Center
Tue 05:35:05 PM 40.9172 -76.2192 106° East 373 429 17,800 -1,488 Descending New York Center
Tue 05:36:05 PM 40.8833 -76.0931 110° East 373 429 16,400 -1,289 Descending New York Center
Tue 05:37:06 PM 40.8533 -75.9700 108° East 360 414 15,200 -1,140 Descending New York Center
Tue 05:38:06 PM 40.8289 -75.8639 107° East 355 409 14,100 -1,119 Descending New York Center
Tue 05:39:04 PM 40.7969 -75.7353 108° East 349 402 13,000 -559 Descending New York Center
Tue 05:40:04 PM 40.7642 -75.6206 111° Southeast 339 390 13,000  Level New York Center
Tue 05:41:04 PM 40.7272 -75.5056 113° Southeast 334 384 13,000  Level New York Center
Tue 05:42:05 PM 40.6919 -75.3964 113° Southeast 334 384 13,000 -99 Level New York Center
Tue 05:43:05 PM 40.6567 -75.2819 112° Southeast 334 384 12,800 -706 Descending New York Center
Tue 05:44:04 PM 40.6211 -75.1731 113° Southeast 328 377 11,600 -1,109 Descending New York Center
Tue 05:45:04 PM 40.5933 -75.0836 112° Southeast 303 349 10,600 -843 Descending New York Center
Tue 05:46:05 PM 40.5614 -74.9861 113° Southeast 298 343 9,900 -244 Descending New York Center
Tue 05:47:07 PM 40.5333 -74.8667 107° East 291 335 10,100 98 Climbing New York TRACON
Tue 05:48:07 PM 40.5000 -74.7667 114° Southeast 291 335 10,100  Level New York TRACON
Tue 05:49:07 PM 40.4667 -74.6667 114° Southeast 291 335 10,100  Level New York TRACON
Tue 05:50:07 PM 40.4333 -74.5667 114° Southeast 290 334 10,100 -400 Level New York TRACON
Tue 05:51:07 PM 40.4500 -74.4667 78° East 287 330 9,300 -1,150 Descending New York TRACON
Tue 05:52:07 PM 40.4667 -74.3833 75° East 277 319 7,800 -1,100 Descending New York TRACON
Tue 05:53:07 PM 40.5000 -74.2833 66° East 260 299 7,100 -350 Descending New York TRACON
Tue 05:54:07 PM 40.5167 -74.2000 75° East 262 302 7,100 -684 Level New York TRACON
Tue 05:55:01 PM 40.5500 -74.1167 62° Northeast 259 298 5,800 -1,579 Descending New York TRACON
Tue 05:56:01 PM 40.6000 -74.0667 37° Northeast 263 303 4,100 -850 Descending New York TRACON
Tue 05:57:01 PM 40.6833 -74.0500 North 267 307 4,100 -350 Level New York TRACON
Tue 05:58:01 PM 40.7500 -74.0000 30° Northeast 263 303 3,400 -500 Descending New York TRACON
Tue 05:59:01 PM 40.8000 -73.9667 27° Northeast 257 296 3,100 -200 Descending New York TRACON
Tue 06:00:01 PM 40.8500 -73.9000 45° Northeast 245 282 3,000 -500 Descending New York TRACON
Tue 06:01:01 PM 40.8833 -73.8500 49° Northeast 196 226 2,100 -900 Descending New York TRACON

Login

Don't have an account? Register now (free) for customized features, flight alerts, and more!